Time,TemperatureF,DewpointF,PressureIn,WindDirection,WindDirectionDegrees,WindSpeedMPH,WindSpeedGustMPH,Humidity,HourlyPrecipIn,Conditions,Clouds,dailyrainin,SoftwareType,DateUTC
2013-04-07 00:00:00,49.4,26.7,29.69,ENE,57,2.0,5.0,41,0.00,,,0.00,Wunderground v.1.15,2013-04-07 04:00:00,
2013-04-07 00:06:00,49.4,26.7,29.68,NNE,33,0.0,1.0,41,0.00,,,0.00,Wunderground v.1.15,2013-04-07 04:06:00,
2013-04-07 00:08:00,49.4,26.7,29.68,NNW,344,0.0,1.0,41,0.00,,,0.00,Wunderground v.1.15,2013-04-07 04:08:00,
2013-04-07 00:13:00,49.4,26.7,29.68,ENE,65,0.0,4.0,41,0.00,,,0.00,Wunderground v.1.15,2013-04-07 04:13:00,
2013-04-07 00:19:00,49.4,27.2,29.67,NNE,33,0.0,4.0,42,0.00,,,0.00,Wunderground v.1.15,2013-04-07 04:19:00,
2013-04-07 00:24:00,49.3,27.2,29.67,East,83,2.0,2.0,42,0.00,,,0.00,Wunderground v.1.15,2013-04-07 04:24:00,
2013-04-07 00:29:00,49.2,27.1,29.67,NW,305,1.0,2.0,42,0.00,,,0.00,Wunderground v.1.15,2013-04-07 04:29:00,
2013-04-07 00:35:00,49.3,27.7,29.66,NE,45,0.0,1.0,43,0.00,,,0.00,Wunderground v.1.15,2013-04-07 04:35:00,
2013-04-07 00:40:00,49.4,27.8,29.66,ENE,59,0.0,1.0,43,0.00,,,0.00,Wunderground v.1.15,2013-04-07 04:40:00,
2013-04-07 00:45:00,49.5,27.9,29.66,NE,52,0.0,4.0,43,0.00,,,0.00,Wunderground v.1.15,2013-04-07 04:45:00,
2013-04-07 00:50:00,49.7,28.1,29.65,North,11,0.0,0.0,43,0.00,,,0.00,Wunderground v.1.15,2013-04-07 04:50:00,
2013-04-07 00:55:00,50.1,27.9,29.65,SE,139,0.0,5.0,42,0.00,,,0.00,Wunderground v.1.15,2013-04-07 04:55:00,
2013-04-07 01:01:00,50.7,28.4,29.65,NW,319,5.0,5.0,42,0.00,,,0.00,Wunderground v.1.15,2013-04-07 05:01:00,
2013-04-07 01:06:00,51.3,29.0,29.65,SE,136,2.0,5.0,42,0.00,,,0.00,Wunderground v.1.15,2013-04-07 05:06:00,
2013-04-07 01:11:00,51.8,29.4,29.65,SW,236,0.0,5.0,42,0.00,,,0.00,Wunderground v.1.15,2013-04-07 05:11:00,
2013-04-07 01:16:00,52.4,30.5,29.65,North,355,6.0,6.0,43,0.00,,,0.00,Wunderground v.1.15,2013-04-07 05:16:00,
2013-04-07 01:22:00,53.0,31.1,29.62,NNE,25,0.0,2.0,43,0.00,,,0.00,Wunderground v.1.15,2013-04-07 05:22:00,
2013-04-07 01:27:00,53.6,31.6,29.62,SE,144,0.0,3.0,43,0.00,,,0.00,Wunderground v.1.15,2013-04-07 05:27:00,
2013-04-07 01:32:00,54.1,31.5,29.62,SSW,210,4.0,6.0,42,0.00,,,0.00,Wunderground v.1.15,2013-04-07 05:32:00,
2013-04-07 01:38:00,54.7,32.0,29.62,SE,136,3.0,6.0,42,0.00,,,0.00,Wunderground v.1.15,2013-04-07 05:38:00,
2013-04-07 01:44:00,54.9,32.2,29.62,WSW,246,7.0,7.0,42,0.00,,,0.00,Wunderground v.1.15,2013-04-07 05:44:00,
2013-04-07 01:49:00,55.0,32.9,29.61,WNW,301,1.0,7.0,43,0.00,,,0.00,Wunderground v.1.15,2013-04-07 05:49:00,
2013-04-07 01:54:00,55.1,33.0,29.61,WSW,249,8.0,8.0,43,0.00,,,0.00,Wunderground v.1.15,2013-04-07 05:54:00,
2013-04-07 02:00:00,55.0,32.9,29.61,WNW,302,0.0,2.0,43,0.00,,,0.00,Wunderground v.1.15,2013-04-07 06:00:00,
2013-04-07 02:05:00,55.0,33.5,29.61,WNW,302,6.0,7.0,44,0.00,,,0.00,Wunderground v.1.15,2013-04-07 06:05:00,
2013-04-07 02:10:00,54.9,35.0,29.61,West,281,0.0,7.0,47,0.00,,,0.00,Wunderground v.1.15,2013-04-07 06:10:00,
2013-04-07 02:15:00,53.9,38.6,29.61,NW,311,7.0,8.0,56,0.00,,,0.00,Wunderground v.1.15,2013-04-07 06:15:00,
2013-04-07 02:20:00,53.2,39.2,29.60,NW,320,0.0,6.0,59,0.00,,,0.00,Wunderground v.1.15,2013-04-07 06:20:00,
2013-04-07 02:25:00,53.0,39.0,29.60,West,267,0.0,6.0,59,0.00,,,0.00,Wunderground v.1.15,2013-04-07 06:25:00,
2013-04-07 02:30:00,52.6,39.1,29.60,WSW,242,0.0,1.0,60,0.00,,,0.00,Wunderground v.1.15,2013-04-07 06:30:00,
2013-04-07 02:35:00,52.4,38.9,29.58,WSW,249,0.0,7.0,60,0.00,,,0.00,Wunderground v.1.15,2013-04-07 06:35:00,
2013-04-07 02:41:00,52.2,38.3,29.58,SE,144,0.0,0.0,59,0.00,,,0.00,Wunderground v.1.15,2013-04-07 06:41:00,
2013-04-07 02:46:00,52.2,38.3,29.58,WNW,290,0.0,2.0,59,0.00,,,0.00,Wunderground v.1.15,2013-04-07 06:46:00,
2013-04-07 02:51:00,52.3,38.0,29.57,NE,44,0.0,0.0,58,0.00,,,0.00,Wunderground v.1.15,2013-04-07 06:51:00,
2013-04-07 02:56:00,52.4,37.6,29.57,ENE,76,0.0,4.0,57,0.00,,,0.00,Wunderground v.1.15,2013-04-07 06:56:00,
2013-04-07 03:01:00,52.7,37.4,29.57,NW,309,0.0,1.0,56,0.00,,,0.00,Wunderground v.1.15,2013-04-07 07:01:00,
2013-04-07 03:06:00,52.9,37.6,29.56,SE,132,0.0,6.0,56,0.00,,,0.00,Wunderground v.1.15,2013-04-07 07:06:00,
2013-04-07 03:12:00,53.0,37.7,29.56,SSW,192,0.0,2.0,56,0.00,,,0.00,Wunderground v.1.15,2013-04-07 07:12:00,
2013-04-07 03:17:00,53.2,37.9,29.56,SSW,209,0.0,7.0,56,0.00,,,0.00,Wunderground v.1.15,2013-04-07 07:17:00,
2013-04-07 03:22:00,53.4,38.1,29.56,WSW,253,0.0,6.0,56,0.00,,,0.00,Wunderground v.1.15,2013-04-07 07:22:00,
2013-04-07 03:27:00,53.7,37.9,29.56,West,275,7.0,8.0,55,0.00,,,0.00,Wunderground v.1.15,2013-04-07 07:27:00,
2013-04-07 03:32:00,54.0,38.6,29.56,WSW,240,0.0,8.0,56,0.00,,,0.00,Wunderground v.1.15,2013-04-07 07:32:00,
2013-04-07 03:37:00,54.4,39.0,29.55,SSW,209,4.0,8.0,56,0.00,,,0.00,Wunderground v.1.15,2013-04-07 07:37:00,
2013-04-07 03:42:00,54.9,39.0,29.55,WSW,251,1.0,6.0,55,0.00,,,0.00,Wunderground v.1.15,2013-04-07 07:42:00,
2013-04-07 03:47:00,55.6,39.2,29.55,NW,306,7.0,13.0,54,0.00,,,0.00,Wunderground v.1.15,2013-04-07 07:47:00,
2013-04-07 03:52:00,56.3,39.9,29.55,WNW,288,8.0,9.0,54,0.00,,,0.00,Wunderground v.1.15,2013-04-07 07:52:00,
2013-04-07 03:57:00,57.0,40.0,29.55,NW,324,5.0,15.0,53,0.00,,,0.00,Wunderground v.1.15,2013-04-07 07:57:00,
2013-04-07 04:02:00,57.3,40.8,29.55,NNW,336,7.0,11.0,54,0.00,,,0.00,Wunderground v.1.15,2013-04-07 08:02:00,
2013-04-07 04:07:00,57.3,40.8,29.54,WNW,303,5.0,16.0,54,0.00,,,0.00,Wunderground v.1.15,2013-04-07 08:07:00,
2013-04-07 04:12:00,57.1,41.5,29.54,NW,306,3.0,12.0,56,0.00,,,0.00,Wunderground v.1.15,2013-04-07 08:12:00,
2013-04-07 04:17:00,56.6,42.9,29.54,NNW,348,5.0,16.0,60,0.00,,,0.00,Wunderground v.1.15,2013-04-07 08:17:00,
2013-04-07 04:22:00,56.1,43.7,29.53,North,360,8.0,22.0,63,0.00,,,0.00,Wunderground v.1.15,2013-04-07 08:22:00,
2013-04-07 04:27:00,55.8,44.2,29.53,WNW,290,15.0,22.0,65,0.00,,,0.00,Wunderground v.1.15,2013-04-07 08:27:00,
2013-04-07 04:32:00,55.6,44.4,29.53,NW,325,10.0,15.0,66,0.00,,,0.00,Wunderground v.1.15,2013-04-07 08:32:00,
2013-04-07 04:37:00,55.5,44.7,29.53,NW,310,4.0,24.0,67,0.00,,,0.00,Wunderground v.1.15,2013-04-07 08:37:00,
2013-04-07 04:42:00,55.3,44.9,29.53,WNW,287,5.0,14.0,68,0.00,,,0.00,Wunderground v.1.15,2013-04-07 08:42:00,
2013-04-07 04:47:00,55.3,44.9,29.53,NW,318,10.0,14.0,68,0.00,,,0.00,Wunderground v.1.15,2013-04-07 08:47:00,
2013-04-07 04:52:00,55.2,44.8,29.52,WNW,288,4.0,7.0,68,0.00,,,0.00,Wunderground v.1.15,2013-04-07 08:52:00,
2013-04-07 04:57:00,54.9,44.9,29.52,WNW,292,4.0,12.0,69,0.00,,,0.00,Wunderground v.1.15,2013-04-07 08:57:00,
2013-04-07 05:02:00,54.6,44.6,29.52,WNW,287,1.0,4.0,69,0.00,,,0.00,Wunderground v.1.15,2013-04-07 09:02:00,
2013-04-07 05:08:00,54.4,44.4,29.52,SW,236,0.0,7.0,69,0.00,,,0.00,Wunderground v.1.15,2013-04-07 09:08:00,
2013-04-07 05:13:00,54.2,44.2,29.52,WNW,296,3.0,4.0,69,0.00,,,0.00,Wunderground v.1.15,2013-04-07 09:13:00,
2013-04-07 05:18:00,54.2,43.9,29.52,West,260,2.0,7.0,68,0.00,,,0.00,Wunderground v.1.15,2013-04-07 09:18:00,
2013-04-07 05:23:00,54.4,43.7,29.52,WNW,303,5.0,8.0,67,0.00,,,0.00,Wunderground v.1.15,2013-04-07 09:23:00,
2013-04-07 05:28:00,54.7,43.6,29.52,NNW,333,11.0,13.0,66,0.00,,,0.00,Wunderground v.1.15,2013-04-07 09:28:00,
2013-04-07 05:33:00,55.3,43.7,29.52,NW,321,9.0,15.0,65,0.00,,,0.00,Wunderground v.1.15,2013-04-07 09:33:00,
2013-04-07 05:38:00,55.8,43.8,29.52,West,268,3.0,24.0,64,0.00,,,0.00,Wunderground v.1.15,2013-04-07 09:38:00,
2013-04-07 05:43:00,55.9,43.9,29.52,WNW,296,7.0,12.0,64,0.00,,,0.00,Wunderground v.1.15,2013-04-07 09:43:00,
2013-04-07 05:48:00,56.1,44.1,29.52,NNW,329,2.0,12.0,64,0.00,,,0.00,Wunderground v.1.15,2013-04-07 09:48:00,
2013-04-07 05:53:00,56.1,44.1,29.52,WNW,290,5.0,12.0,64,0.00,,,0.00,Wunderground v.1.15,2013-04-07 09:53:00,
2013-04-07 05:58:00,56.2,44.2,29.52,NW,314,7.0,21.0,64,0.00,,,0.00,Wunderground v.1.15,2013-04-07 09:58:00,
2013-04-07 06:03:00,56.3,44.3,29.52,North,355,8.0,14.0,64,0.00,,,0.00,Wunderground v.1.15,2013-04-07 10:03:00,
2013-04-07 06:08:00,56.2,44.6,29.52,North,355,7.0,15.0,65,0.00,,,0.00,Wunderground v.1.15,2013-04-07 10:08:00,
2013-04-07 06:13:00,56.3,44.7,29.52,WNW,297,12.0,12.0,65,0.00,,,0.00,Wunderground v.1.15,2013-04-07 10:13:00,
2013-04-07 06:18:00,56.3,44.7,29.52,NW,310,6.0,16.0,65,0.00,,,0.00,Wunderground v.1.15,2013-04-07 10:18:00,
2013-04-07 06:23:00,56.2,44.6,29.53,WNW,292,5.0,18.0,65,0.00,,,0.00,Wunderground v.1.15,2013-04-07 10:23:00,
2013-04-07 06:28:00,56.2,45.0,29.53,WNW,302,5.0,19.0,66,0.00,,,0.00,Wunderground v.1.15,2013-04-07 10:28:00,
2013-04-07 06:33:00,56.0,44.8,29.53,WNW,296,7.0,15.0,66,0.00,,,0.00,Wunderground v.1.15,2013-04-07 10:33:00,
2013-04-07 06:38:00,56.0,45.2,29.54,WNW,287,14.0,28.0,67,0.00,,,0.00,Wunderground v.1.15,2013-04-07 10:38:00,
2013-04-07 06:43:00,56.0,45.2,29.54,NNW,333,19.0,20.0,67,0.00,,,0.00,Wunderground v.1.15,2013-04-07 10:43:00,
2013-04-07 06:48:00,55.9,45.5,29.54,West,271,13.0,23.0,68,0.00,,,0.00,Wunderground v.1.15,2013-04-07 10:48:00,
2013-04-07 06:53:00,55.7,45.3,29.54,NNW,331,12.0,23.0,68,0.00,,,0.00,Wunderground v.1.15,2013-04-07 10:53:00,
2013-04-07 06:58:00,55.6,45.6,29.54,NW,317,6.0,23.0,69,0.00,,,0.00,Wunderground v.1.15,2013-04-07 10:58:00,
2013-04-07 07:03:00,55.4,45.4,29.54,NNW,327,13.0,16.0,69,0.00,,,0.00,Wunderground v.1.15,2013-04-07 11:03:00,
2013-04-07 07:08:00,55.3,45.7,29.55,North,5,7.0,20.0,70,0.00,,,0.00,Wunderground v.1.15,2013-04-07 11:08:00,
2013-04-07 07:13:00,55.2,45.6,29.55,WNW,297,5.0,20.0,70,0.00,,,0.00,Wunderground v.1.15,2013-04-07 11:13:00,
2013-04-07 07:18:00,55.1,45.9,29.55,NW,311,7.0,20.0,71,0.00,,,0.00,Wunderground v.1.15,2013-04-07 11:18:00,
2013-04-07 07:23:00,55.0,45.8,29.56,NW,313,4.0,9.0,71,0.00,,,0.00,Wunderground v.1.15,2013-04-07 11:23:00,
2013-04-07 07:28:00,54.9,46.0,29.56,NW,314,5.0,16.0,72,0.00,,,0.00,Wunderground v.1.15,2013-04-07 11:28:00,
2013-04-07 07:33:00,54.9,46.0,29.56,NW,325,2.0,16.0,72,0.00,,,0.00,Wunderground v.1.15,2013-04-07 11:33:00,
2013-04-07 07:38:00,54.8,45.9,29.57,NNW,330,5.0,24.0,72,0.00,,,0.00,Wunderground v.1.15,2013-04-07 11:38:00,
2013-04-07 07:43:00,54.7,45.8,29.57,NNW,331,6.0,14.0,72,0.00,,,0.00,Wunderground v.1.15,2013-04-07 11:43:00,
2013-04-07 07:48:00,54.6,45.8,29.57,WNW,301,12.0,14.0,72,0.00,,,0.00,Wunderground v.1.15,2013-04-07 11:48:00,
2013-04-07 07:54:00,54.6,46.1,29.57,North,360,13.0,15.0,73,0.00,,,0.00,Wunderground v.1.15,2013-04-07 11:54:00,
2013-04-07 07:59:00,54.6,46.1,29.57,NNW,341,9.0,16.0,73,0.00,,,0.00,Wunderground v.1.15,2013-04-07 11:59:00,
2013-04-07 08:05:00,54.6,46.1,29.58,NW,314,5.0,11.0,73,0.00,,,0.00,Wunderground v.1.15,2013-04-07 12:05:00,
2013-04-07 08:10:00,54.6,46.1,29.58,NW,306,4.0,6.0,73,0.00,,,0.00,Wunderground v.1.15,2013-04-07 12:10:00,
2013-04-07 08:15:00,54.6,46.1,29.58,NNW,329,6.0,14.0,73,0.00,,,0.00,Wunderground v.1.15,2013-04-07 12:15:00,
2013-04-07 08:20:00,54.5,46.0,29.60,NNW,328,10.0,10.0,73,0.00,,,0.00,Wunderground v.1.15,2013-04-07 12:20:00,
2013-04-07 08:26:00,54.4,45.9,29.60,NNW,344,7.0,18.0,73,0.00,,,0.00,Wunderground v.1.15,2013-04-07 12:26:00,
2013-04-07 08:31:00,54.0,45.5,29.60,NNW,346,2.0,9.0,73,0.00,,,0.00,Wunderground v.1.15,2013-04-07 12:31:00,
2013-04-07 08:36:00,53.5,45.8,29.61,NNW,339,10.0,19.0,75,0.00,,,0.00,Wunderground v.1.15,2013-04-07 12:36:00,
2013-04-07 08:41:00,53.1,45.7,29.61,North,355,13.0,14.0,76,0.00,,,0.00,Wunderground v.1.15,2013-04-07 12:41:00,
2013-04-07 08:46:00,52.8,45.4,29.61,NNE,22,9.0,16.0,76,0.00,,,0.00,Wunderground v.1.15,2013-04-07 12:46:00,
2013-04-07 08:51:00,52.4,45.4,29.62,NE,36,7.0,10.0,77,0.00,,,0.00,Wunderground v.1.15,2013-04-07 12:51:00,
2013-04-07 08:56:00,52.2,45.2,29.62,NW,325,5.0,12.0,77,0.00,,,0.00,Wunderground v.1.15,2013-04-07 12:56:00,
2013-04-07 09:01:00,52.0,45.4,29.62,NNW,341,5.0,12.0,78,0.00,,,0.00,Wunderground v.1.15,2013-04-07 13:01:00,
2013-04-07 09:06:00,51.8,45.2,29.64,North,355,5.0,14.0,78,0.00,,,0.00,Wunderground v.1.15,2013-04-07 13:06:00,
2013-04-07 09:12:00,51.5,44.5,29.64,NNW,335,8.0,10.0,77,0.00,,,0.00,Wunderground v.1.15,2013-04-07 13:12:00,
2013-04-07 09:17:00,51.2,44.2,29.64,NNE,16,5.0,16.0,77,0.00,,,0.00,Wunderground v.1.15,2013-04-07 13:17:00,
2013-04-07 09:22:00,50.0,43.4,29.65,NNE,16,9.0,12.0,78,0.00,,,0.00,Wunderground v.1.15,2013-04-07 13:22:00,
2013-04-07 09:27:00,48.9,43.3,29.65,NNW,333,6.0,14.0,81,0.00,,,0.00,Wunderground v.1.15,2013-04-07 13:27:00,
2013-04-07 09:32:00,48.3,43.1,29.65,NE,36,8.0,8.0,82,0.00,,,0.00,Wunderground v.1.15,2013-04-07 13:32:00,
2013-04-07 09:37:00,48.0,42.8,29.67,NNE,19,1.0,10.0,82,0.00,,,0.00,Wunderground v.1.15,2013-04-07 13:37:00,
2013-04-07 09:42:00,47.7,42.5,29.67,NW,315,10.0,13.0,82,0.00,,,0.00,Wunderground v.1.15,2013-04-07 13:42:00,
2013-04-07 09:47:00,47.4,42.2,29.67,NNE,33,8.0,15.0,82,0.00,,,0.00,Wunderground v.1.15,2013-04-07 13:47:00,
2013-04-07 09:52:00,47.2,42.0,29.68,WNW,302,1.0,9.0,82,0.00,,,0.00,Wunderground v.1.15,2013-04-07 13:52:00,
2013-04-07 09:58:00,47.1,41.9,29.68,NNE,24,7.0,13.0,82,0.00,,,0.00,Wunderground v.1.15,2013-04-07 13:58:00,
2013-04-07 10:03:00,47.0,41.8,29.68,NNW,340,1.0,12.0,82,0.00,,,0.00,Wunderground v.1.15,2013-04-07 14:03:00,
2013-04-07 10:08:00,47.2,42.0,29.69,NNW,345,7.0,12.0,82,0.00,,,0.00,Wunderground v.1.15,2013-04-07 14:08:00,
2013-04-07 10:13:00,47.2,41.7,29.69,NNE,24,7.0,10.0,81,0.00,,,0.00,Wunderground v.1.15,2013-04-07 14:13:00,
2013-04-07 10:18:00,47.2,41.3,29.69,NW,321,13.0,15.0,80,0.00,,,0.00,Wunderground v.1.15,2013-04-07 14:18:00,
2013-04-07 10:23:00,47.2,41.3,29.70,NW,318,8.0,13.0,80,0.00,,,0.00,Wunderground v.1.15,2013-04-07 14:23:00,
2013-04-07 10:28:00,47.1,40.9,29.70,NW,317,5.0,15.0,79,0.00,,,0.00,Wunderground v.1.15,2013-04-07 14:28:00,
2013-04-07 10:33:00,46.9,40.7,29.70,NNW,338,5.0,8.0,79,0.00,,,0.00,Wunderground v.1.15,2013-04-07 14:33:00,
2013-04-07 10:38:00,47.0,40.8,29.71,ENE,64,4.0,9.0,79,0.00,,,0.00,Wunderground v.1.15,2013-04-07 14:38:00,
2013-04-07 10:43:00,46.9,40.7,29.71,NNW,347,6.0,8.0,79,0.00,,,0.00,Wunderground v.1.15,2013-04-07 14:43:00,
2013-04-07 10:48:00,46.5,40.3,29.71,North,360,1.0,8.0,79,0.00,,,0.00,Wunderground v.1.15,2013-04-07 14:48:00,
2013-04-07 10:53:00,46.3,40.1,29.72,NW,319,6.0,7.0,79,0.00,,,0.00,Wunderground v.1.15,2013-04-07 14:53:00,
2013-04-07 10:58:00,46.2,40.0,29.72,NE,40,1.0,8.0,79,0.00,,,0.00,Wunderground v.1.15,2013-04-07 14:58:00,
2013-04-07 11:03:00,46.1,39.9,29.72,NNE,24,0.0,10.0,79,0.00,,,0.00,Wunderground v.1.15,2013-04-07 15:03:00,
2013-04-07 11:08:00,46.0,39.5,29.73,ENE,58,8.0,11.0,78,0.00,,,0.00,Wunderground v.1.15,2013-04-07 15:08:00,
2013-04-07 11:13:00,45.8,39.0,29.73,North,360,5.0,14.0,77,0.00,,,0.00,Wunderground v.1.15,2013-04-07 15:13:00,
2013-04-07 11:18:00,45.6,38.8,29.73,NNE,32,6.0,14.0,77,0.00,,,0.00,Wunderground v.1.15,2013-04-07 15:18:00,
2013-04-07 11:23:00,45.5,39.0,29.74,NE,37,5.0,14.0,78,0.00,,,0.00,Wunderground v.1.15,2013-04-07 15:23:00,
2013-04-07 11:28:00,45.5,39.0,29.74,NE,46,5.0,14.0,78,0.00,,,0.00,Wunderground v.1.15,2013-04-07 15:28:00,
2013-04-07 11:33:00,45.6,38.8,29.74,North,355,9.0,14.0,77,0.00,,,0.00,Wunderground v.1.15,2013-04-07 15:33:00,
2013-04-07 11:38:00,45.5,38.7,29.75,North,355,6.0,14.0,77,0.00,,,0.00,Wunderground v.1.15,2013-04-07 15:38:00,
2013-04-07 11:43:00,45.6,38.5,29.75,East,101,0.0,11.0,76,0.00,,,0.00,Wunderground v.1.15,2013-04-07 15:43:00,
2013-04-07 11:48:00,45.6,38.5,29.75,NNE,22,8.0,12.0,76,0.00,,,0.00,Wunderground v.1.15,2013-04-07 15:48:00,
2013-04-07 11:53:00,45.9,38.8,29.76,North,360,10.0,13.0,76,0.00,,,0.00,Wunderground v.1.15,2013-04-07 15:53:00,
2013-04-07 11:58:00,46.1,39.0,29.76,NW,320,5.0,15.0,76,0.00,,,0.00,Wunderground v.1.15,2013-04-07 15:58:00,
2013-04-07 12:03:00,46.2,38.4,29.76,North,355,8.0,18.0,74,0.00,,,0.00,Wunderground v.1.15,2013-04-07 16:03:00,
2013-04-07 12:08:00,46.2,38.4,29.76,NE,34,8.0,18.0,74,0.00,,,0.00,Wunderground v.1.15,2013-04-07 16:08:00,
2013-04-07 12:13:00,46.3,38.5,29.76,NNE,12,8.0,15.0,74,0.00,,,0.00,Wunderground v.1.15,2013-04-07 16:13:00,
2013-04-07 12:18:00,46.3,38.1,29.76,North,355,5.0,15.0,73,0.00,,,0.00,Wunderground v.1.15,2013-04-07 16:18:00,
2013-04-07 12:23:00,46.5,38.3,29.77,ESE,104,1.0,13.0,73,0.00,,,0.00,Wunderground v.1.15,2013-04-07 16:23:00,
2013-04-07 12:29:00,46.7,38.5,29.77,NNW,340,9.0,13.0,73,0.00,,,0.00,Wunderground v.1.15,2013-04-07 16:29:00,
2013-04-07 12:34:00,46.4,38.2,29.77,North,355,9.0,12.0,73,0.00,,,0.00,Wunderground v.1.15,2013-04-07 16:34:00,
2013-04-07 12:39:00,46.6,38.4,29.77,NNW,328,10.0,15.0,73,0.00,,,0.00,Wunderground v.1.15,2013-04-07 16:39:00,
2013-04-07 12:44:00,46.5,38.0,29.77,NW,314,5.0,16.0,72,0.00,,,0.00,Wunderground v.1.15,2013-04-07 16:44:00,
2013-04-07 12:49:00,46.3,37.8,29.78,NNW,348,4.0,16.0,72,0.00,,,0.00,Wunderground v.1.15,2013-04-07 16:49:00,
2013-04-07 12:54:00,46.8,38.2,29.78,NW,311,10.0,15.0,72,0.00,,,0.00,Wunderground v.1.15,2013-04-07 16:54:00,
2013-04-07 12:59:00,46.7,37.8,29.78,NW,311,7.0,15.0,71,0.00,,,0.00,Wunderground v.1.15,2013-04-07 16:59:00,
2013-04-07 13:04:00,46.7,37.8,29.78,North,351,3.0,10.0,71,0.00,,,0.00,Wunderground v.1.15,2013-04-07 17:04:00,
2013-04-07 13:09:00,46.7,37.8,29.78,North,11,5.0,11.0,71,0.00,,,0.00,Wunderground v.1.15,2013-04-07 17:09:00,
2013-04-07 13:14:00,46.5,37.2,29.78,NE,51,6.0,19.0,70,0.00,,,0.00,Wunderground v.1.15,2013-04-07 17:14:00,
2013-04-07 13:19:00,46.4,37.5,29.78,NNW,330,4.0,19.0,71,0.00,,,0.00,Wunderground v.1.15,2013-04-07 17:19:00,
2013-04-07 13:24:00,46.4,37.5,29.78,NE,38,2.0,16.0,71,0.00,,,0.00,Wunderground v.1.15,2013-04-07 17:24:00,
2013-04-07 13:29:00,46.6,37.3,29.78,NNE,25,7.0,16.0,70,0.00,,,0.00,Wunderground v.1.15,2013-04-07 17:29:00,
2013-04-07 13:34:00,46.8,37.5,29.80,NNE,18,2.0,12.0,70,0.00,,,0.00,Wunderground v.1.15,2013-04-07 17:34:00,
2013-04-07 13:39:00,47.2,37.5,29.80,ENE,78,5.0,12.0,69,0.00,,,0.00,Wunderground v.1.15,2013-04-07 17:39:00,
2013-04-07 13:44:00,46.8,37.2,29.80,NNW,346,6.0,14.0,69,0.00,,,0.00,Wunderground v.1.15,2013-04-07 17:44:00,
2013-04-07 13:49:00,46.7,37.1,29.80,ENE,61,0.0,14.0,69,0.00,,,0.00,Wunderground v.1.15,2013-04-07 17:49:00,
2013-04-07 13:54:00,46.8,37.2,29.80,NNE,14,5.0,11.0,69,0.00,,,0.00,Wunderground v.1.15,2013-04-07 17:54:00,